createdAt,value
2023-10-13T00:02:03.057Z,4.53
2023-10-13T00:04:34.048Z,4.82
2023-10-13T00:07:03.489Z,4.47
2023-10-13T00:09:36.816Z,4.28
2023-10-13T00:12:15.078Z,4.40
2023-10-13T00:14:43.175Z,4.53
2023-10-13T00:17:20.433Z,4.45
2023-10-13T00:19:48.374Z,4.45
2023-10-13T00:22:21.143Z,4.55
2023-10-13T00:24:49.468Z,4.67
2023-10-13T00:27:37.770Z,4.45
2023-10-13T00:30:19.187Z,4.55
2023-10-13T00:32:58.025Z,4.40
2023-10-13T00:35:38.547Z,5.05
2023-10-13T00:38:18.027Z,4.85
2023-10-13T00:40:53.336Z,4.18
2023-10-13T00:43:22.480Z,4.65
2023-10-13T00:45:56.788Z,4.50
2023-10-13T00:48:34.659Z,4.50
2023-10-13T00:51:08.396Z,4.18
2023-10-13T00:53:45.685Z,4.30
2023-10-13T00:56:28.469Z,4.68
2023-10-13T00:59:00.458Z,4.15
2023-10-13T01:01:34.431Z,4.85
2023-10-13T01:04:04.652Z,4.15
2023-10-13T01:06:32.665Z,4.30
2023-10-13T01:09:13.727Z,3.95
2023-10-13T01:11:46.134Z,4.20
2023-10-13T01:14:16.450Z,4.40
2023-10-13T01:16:47.710Z,4.38
2023-10-13T01:19:21.232Z,4.05
2023-10-13T01:21:49.394Z,4.60
2023-10-13T01:24:20.176Z,3.75
2023-10-13T01:26:52.595Z,3.63
2023-10-13T01:29:20.902Z,4.43
2023-10-13T01:31:48.832Z,4.10
2023-10-13T01:34:23.567Z,3.75
2023-10-13T01:36:54.465Z,4.57
2023-10-13T01:39:29.967Z,3.92
2023-10-13T01:41:57.900Z,3.58
2023-10-13T01:44:33.798Z,3.85
2023-10-13T01:47:08.398Z,3.75
2023-10-13T01:49:49.268Z,3.88
2023-10-13T01:52:17.421Z,3.90
2023-10-13T01:54:52.148Z,3.67
2023-10-13T01:57:20.059Z,3.80
2023-10-13T01:59:49.363Z,4.32
2023-10-13T02:02:30.831Z,4.07
2023-10-13T02:05:03.481Z,4.03
2023-10-13T02:07:32.204Z,4.25
2023-10-13T02:10:00.336Z,4.57
2023-10-13T02:12:38.083Z,4.38
2023-10-13T02:15:06.327Z,3.85
2023-10-13T02:17:43.911Z,4.28
2023-10-13T02:20:16.097Z,3.53
2023-10-13T02:22:52.831Z,3.63
2023-10-13T02:25:47.280Z,3.65
2023-10-13T02:30:50.131Z,4.30
2023-10-13T02:33:30.869Z,3.58
2023-10-13T02:35:59.821Z,3.70
2023-10-13T02:38:34.627Z,3.92
2023-10-13T02:41:08.999Z,3.63
2023-10-13T02:43:37.724Z,3.55
2023-10-13T02:46:06.149Z,3.20
2023-10-13T02:48:43.533Z,3.22
2023-10-13T02:51:18.011Z,3.38
2023-10-13T02:53:50.074Z,3.28
2023-10-13T02:56:24.387Z,3.47
2023-10-13T02:59:06.382Z,3.28
2023-10-13T03:01:37.536Z,3.25
2023-10-13T03:04:09.427Z,2.67
2023-10-13T03:06:41.386Z,2.90
2023-10-13T03:09:19.862Z,3.15
2023-10-13T03:11:51.086Z,3.10
2023-10-13T03:14:27.225Z,2.78
2023-10-13T03:16:56.745Z,3.00
2023-10-13T03:19:34.294Z,3.22
2023-10-13T03:22:26.675Z,3.30
2023-10-13T03:24:54.649Z,2.42
2023-10-13T03:27:25.828Z,3.00
2023-10-13T03:29:56.543Z,3.13
2023-10-13T03:32:28.354Z,2.85
2023-10-13T03:35:12.799Z,3.03
2023-10-13T03:40:22.985Z,3.30
2023-10-13T03:43:06.207Z,2.90
2023-10-13T03:45:49.282Z,2.67
2023-10-13T03:48:27.300Z,3.10
2023-10-13T03:51:12.019Z,3.03
2023-10-13T03:53:56.557Z,2.80
2023-10-13T03:56:32.924Z,2.45
2023-10-13T03:59:06.513Z,3.33
2023-10-13T04:01:44.593Z,3.03
2023-10-13T04:04:13.786Z,2.88
2023-10-13T04:06:47.366Z,2.90
2023-10-13T04:09:31.323Z,3.40
2023-10-13T04:12:06.549Z,3.17
2023-10-13T04:14:54.927Z,2.95
2023-10-13T04:17:27.645Z,2.83
2023-10-13T04:20:09.189Z,3.10
2023-10-13T04:22:45.307Z,3.22
2023-10-13T04:25:38.314Z,2.75
2023-10-13T04:28:28.291Z,3.13
2023-10-13T04:30:59.577Z,3.10
2023-10-13T04:33:37.642Z,2.85
2023-10-13T04:36:23.379Z,3.30
2023-10-13T04:39:07.731Z,3.10
2023-10-13T04:41:46.730Z,2.85
2023-10-13T04:44:37.274Z,3.30
2023-10-13T04:47:04.848Z,2.50
2023-10-13T04:49:51.334Z,3.00
2023-10-13T04:52:38.848Z,2.80
2023-10-13T04:55:42.444Z,3.25
2023-10-13T04:58:29.146Z,2.83
2023-10-13T05:01:22.512Z,3.00
2023-10-13T05:04:11.875Z,2.83
2023-10-13T05:06:45.834Z,2.95
2023-10-13T05:12:18.780Z,2.75
2023-10-13T05:15:06.162Z,2.95
2023-10-13T05:17:54.286Z,2.63
2023-10-13T05:20:40.731Z,2.78
2023-10-13T05:23:27.061Z,2.90
2023-10-13T05:26:13.379Z,2.85
2023-10-13T05:28:59.621Z,3.00
2023-10-13T05:31:46.006Z,2.95
2023-10-13T05:34:32.204Z,2.72
2023-10-13T05:37:18.701Z,2.67
2023-10-13T05:43:40.056Z,3.53
2023-10-13T05:46:26.449Z,4.82
2023-10-13T05:49:01.061Z,7.38
2023-10-13T05:51:45.280Z,8.63
2023-10-13T05:57:09.029Z,10.80
2023-10-13T05:59:57.630Z,12.50
2023-10-13T06:02:44.777Z,12.88
2023-10-13T06:05:32.343Z,13.00
2023-10-13T06:08:18.654Z,13.68
2023-10-13T06:11:05.931Z,16.65
2023-10-13T06:13:52.312Z,18.33
2023-10-13T06:16:38.579Z,19.75
2023-10-13T06:19:25.496Z,19.23
2023-10-13T06:22:11.999Z,19.05
2023-10-13T06:24:58.229Z,18.92
2023-10-13T06:27:44.664Z,18.60
2023-10-13T06:30:13.714Z,17.92
2023-10-13T06:32:41.504Z,18.73
2023-10-13T06:35:09.763Z,18.55
2023-10-13T06:37:43.467Z,19.10
2023-10-13T06:43:17.223Z,18.40
2023-10-13T06:45:58.413Z,19.35
2023-10-13T06:48:26.525Z,17.23
2023-10-13T06:50:57.035Z,16.73
2023-10-13T06:53:26.456Z,17.17
2023-10-13T06:56:00.103Z,15.60
2023-10-13T06:58:27.818Z,16.08
2023-10-13T07:00:56.575Z,14.88
2023-10-13T07:03:24.483Z,14.65
2023-10-13T07:05:53.107Z,13.02
2023-10-13T07:08:25.199Z,13.00
2023-10-13T07:11:09.593Z,12.45
2023-10-13T07:13:39.611Z,11.77
2023-10-13T07:16:16.752Z,12.27
2023-10-13T07:18:56.951Z,12.55
2023-10-13T07:21:33.026Z,11.68
2023-10-13T07:24:19.298Z,11.70
2023-10-13T07:26:48.176Z,9.30
2023-10-13T07:29:16.407Z,9.45
2023-10-13T07:31:46.947Z,8.10
2023-10-13T07:34:26.461Z,7.82
2023-10-13T07:36:56.489Z,7.40
2023-10-13T07:39:27.072Z,6.85
2023-10-13T07:42:05.477Z,6.00
2023-10-13T07:44:34.740Z,6.20
2023-10-13T07:47:05.588Z,5.95
2023-10-13T07:49:37.961Z,5.20
2023-10-13T07:52:21.958Z,4.70
2023-10-13T07:55:11.558Z,4.30
2023-10-13T07:57:55.189Z,4.03
2023-10-13T08:00:47.462Z,4.22
2023-10-13T08:03:18.110Z,4.38
2023-10-13T08:06:21.905Z,4.18
2023-10-13T08:08:55.519Z,4.82
2023-10-13T08:11:26.419Z,4.25
2023-10-13T08:14:07.690Z,4.10
2023-10-13T08:17:00.587Z,4.15
2023-10-13T08:19:29.560Z,4.90
2023-10-13T08:22:21.829Z,5.18
2023-10-13T08:24:50.585Z,5.03
2023-10-13T08:27:37.758Z,5.15
2023-10-13T08:30:38.153Z,5.55
2023-10-13T08:33:18.366Z,5.95
2023-10-13T08:36:06.525Z,6.88
2023-10-13T08:38:52.375Z,6.18
2023-10-13T08:41:20.739Z,6.13
2023-10-13T08:43:54.793Z,6.97
2023-10-13T08:46:48.739Z,6.35
2023-10-13T08:49:19.396Z,8.60
2023-10-13T08:51:50.603Z,8.38
2023-10-13T08:54:40.650Z,7.88
2023-10-13T08:57:21.580Z,8.32
2023-10-13T08:59:56.677Z,9.10
2023-10-13T09:02:43.628Z,9.77
2023-10-13T09:05:31.893Z,9.55
2023-10-13T09:08:10.342Z,9.60
2023-10-13T09:11:07.045Z,10.27
2023-10-13T09:13:47.186Z,10.73
2023-10-13T09:16:44.150Z,11.00
2023-10-13T09:19:13.459Z,10.93
2023-10-13T09:21:42.016Z,10.40
2023-10-13T09:24:24.448Z,11.30
2023-10-13T09:26:56.970Z,11.30
2023-10-13T09:29:26.203Z,12.07
2023-10-13T09:32:03.914Z,10.60
2023-10-13T09:34:36.196Z,10.40
2023-10-13T09:37:05.350Z,11.93
2023-10-13T09:39:56.985Z,12.63
2023-10-13T09:42:27.542Z,13.52
2023-10-13T09:45:00.577Z,13.85
2023-10-13T09:47:38.814Z,14.73
2023-10-13T09:50:15.568Z,16.10
2023-10-13T09:52:45.584Z,17.48
2023-10-13T09:55:22.546Z,17.13
2023-10-13T09:58:15.348Z,17.02
2023-10-13T10:01:00.480Z,17.55
2023-10-13T10:03:32.115Z,18.13
2023-10-13T10:06:05.049Z,16.77
2023-10-13T10:08:39.970Z,17.75
2023-10-13T10:11:35.768Z,17.02
2023-10-13T10:14:05.449Z,15.20
2023-10-13T10:16:50.469Z,13.75
2023-10-13T10:19:19.840Z,11.95
2023-10-13T10:21:49.714Z,8.02
2023-10-13T10:24:33.110Z,7.40
2023-10-13T10:27:00.690Z,6.57
2023-10-13T10:29:28.304Z,5.88
2023-10-13T10:31:55.867Z,6.22
2023-10-13T10:34:34.021Z,5.68
2023-10-13T10:37:02.811Z,5.07
2023-10-13T10:39:51.064Z,5.13
2023-10-13T10:42:24.751Z,6.32
2023-10-13T10:47:38.381Z,4.88
2023-10-13T10:50:10.184Z,5.20
2023-10-13T10:52:40.888Z,5.32
2023-10-13T10:55:08.883Z,5.22
2023-10-13T10:57:39.562Z,4.78
2023-10-13T11:00:12.836Z,4.97
2023-10-13T11:02:40.883Z,4.00
2023-10-13T11:05:11.920Z,3.83
2023-10-13T11:07:51.255Z,4.43
2023-10-13T11:10:28.428Z,3.90
2023-10-13T11:12:57.837Z,4.47
2023-10-13T11:15:34.817Z,4.78
2023-10-13T11:18:07.403Z,4.82
2023-10-13T11:20:46.365Z,5.43
2023-10-13T11:23:15.114Z,5.50
2023-10-13T11:25:46.042Z,5.10
2023-10-13T11:28:22.004Z,4.80
2023-10-13T11:30:52.920Z,4.30
2023-10-13T11:33:27.695Z,4.40
2023-10-13T11:35:56.270Z,4.15
2023-10-13T11:38:30.317Z,4.63
2023-10-13T11:41:16.133Z,7.82
2023-10-13T11:44:06.189Z,9.50
2023-10-13T11:46:37.713Z,9.70
2023-10-13T11:49:16.844Z,9.70
2023-10-13T11:51:49.263Z,10.45
2023-10-13T11:54:19.499Z,9.52
2023-10-13T11:56:48.037Z,9.65
2023-10-13T11:59:19.442Z,9.95
2023-10-13T12:02:10.369Z,9.10
2023-10-13T12:04:45.097Z,7.68
2023-10-13T12:07:21.545Z,7.13
2023-10-13T12:09:57.161Z,8.75
2023-10-13T12:12:25.798Z,8.68
2023-10-13T12:14:57.485Z,8.70
2023-10-13T12:17:29.770Z,8.65
2023-10-13T12:19:58.570Z,7.97
2023-10-13T12:22:29.949Z,8.10
2023-10-13T12:24:57.841Z,7.40
2023-10-13T12:27:28.459Z,7.55
2023-10-13T12:29:57.930Z,7.80
2023-10-13T12:32:32.377Z,7.60
2023-10-13T12:35:05.981Z,7.13
2023-10-13T12:37:43.124Z,6.88
2023-10-13T12:40:33.323Z,7.35
2023-10-13T12:43:19.860Z,6.95
2023-10-13T12:46:08.016Z,6.93
2023-10-13T12:48:57.418Z,7.15
2023-10-13T12:51:33.974Z,7.25
2023-10-13T12:54:17.173Z,6.50
2023-10-13T12:56:44.962Z,6.03
2023-10-13T12:59:14.866Z,6.35
2023-10-13T13:01:45.923Z,5.35
2023-10-13T13:04:21.645Z,5.20
2023-10-13T13:06:51.635Z,5.20
2023-10-13T13:09:28.174Z,5.47
2023-10-13T13:11:59.824Z,4.70
2023-10-13T13:14:30.917Z,5.63
2023-10-13T13:17:06.082Z,4.88
2023-10-13T13:19:40.637Z,4.85
2023-10-13T13:22:15.940Z,4.15
2023-10-13T13:24:45.902Z,5.25
2023-10-13T13:27:16.037Z,4.85
2023-10-13T13:29:43.955Z,5.10
2023-10-13T13:32:19.091Z,5.28
2023-10-13T13:34:55.937Z,5.50
2023-10-13T13:37:24.140Z,4.90
2023-10-13T13:39:54.149Z,4.53
2023-10-13T13:42:21.951Z,5.25
2023-10-13T13:44:49.649Z,5.00
2023-10-13T13:47:18.499Z,4.57
2023-10-13T13:49:53.294Z,4.50
2023-10-13T13:52:34.855Z,4.90
2023-10-13T13:55:06.726Z,4.68
2023-10-13T13:57:34.352Z,4.85
2023-10-13T14:00:01.838Z,4.53
2023-10-13T14:02:37.435Z,5.00
2023-10-13T14:05:05.566Z,5.63
2023-10-13T14:07:34.339Z,5.57
2023-10-13T14:10:08.264Z,5.35
2023-10-13T14:12:44.953Z,5.90
2023-10-13T14:15:25.266Z,5.32
2023-10-13T14:17:53.003Z,6.38
2023-10-13T14:20:20.779Z,5.93
2023-10-13T14:22:53.777Z,6.53
2023-10-13T14:25:25.638Z,5.87
2023-10-13T14:27:55.403Z,5.72
2023-10-13T14:30:24.660Z,5.53
2023-10-13T14:32:52.345Z,5.32
2023-10-13T14:35:20.137Z,6.55
2023-10-13T14:37:47.835Z,6.47
2023-10-13T14:40:17.258Z,5.63
2023-10-13T14:42:45.543Z,6.30
2023-10-13T14:45:15.027Z,5.90
2023-10-13T14:47:46.465Z,5.50
2023-10-13T14:50:21.487Z,5.85
2023-10-13T14:52:50.699Z,5.78
2023-10-13T14:55:22.547Z,5.65
2023-10-13T14:57:52.075Z,5.57
2023-10-13T15:00:26.692Z,5.72
2023-10-13T15:02:56.282Z,5.07
2023-10-13T15:05:24.480Z,5.78
2023-10-13T15:07:52.879Z,5.43
2023-10-13T15:10:20.775Z,5.47
2023-10-13T15:12:50.115Z,5.50
2023-10-13T15:15:17.737Z,5.50
2023-10-13T15:17:45.507Z,5.28
2023-10-13T15:20:21.910Z,5.72
2023-10-13T15:23:02.026Z,5.35
2023-10-13T15:25:30.639Z,5.53
2023-10-13T15:28:04.143Z,5.63
2023-10-13T15:30:56.939Z,4.78
2023-10-13T15:33:26.697Z,5.20
2023-10-13T15:35:54.821Z,4.72
2023-10-13T15:38:23.661Z,5.30
2023-10-13T15:40:56.473Z,5.72
2023-10-13T15:43:24.614Z,4.47
2023-10-13T15:45:52.440Z,5.13
2023-10-13T15:48:26.418Z,5.53
2023-10-13T15:50:55.293Z,5.78
2023-10-13T15:53:27.281Z,5.13
2023-10-13T15:55:58.406Z,5.03
2023-10-13T16:01:18.906Z,4.03
2023-10-13T16:06:40.286Z,4.45
2023-10-13T16:09:21.046Z,4.70
2023-10-13T16:11:48.782Z,4.85
2023-10-13T16:14:18.983Z,4.82
2023-10-13T16:16:50.950Z,5.18
2023-10-13T16:19:23.112Z,4.75
2023-10-13T16:21:57.898Z,4.38
2023-10-13T16:27:09.956Z,4.55
2023-10-13T16:29:37.415Z,4.82
2023-10-13T16:32:05.382Z,4.90
2023-10-13T16:34:32.967Z,4.72
2023-10-13T16:37:06.213Z,4.70
2023-10-13T16:39:40.588Z,4.70
2023-10-13T16:42:10.569Z,5.00
2023-10-13T16:44:39.742Z,4.13
2023-10-13T16:47:07.257Z,5.20
2023-10-13T16:49:34.811Z,4.30
2023-10-13T16:52:02.303Z,4.03
2023-10-13T16:54:30.296Z,4.30
2023-10-13T16:56:57.874Z,4.43
2023-10-13T16:59:27.911Z,4.35
2023-10-13T17:01:59.213Z,4.43
2023-10-13T17:04:28.516Z,4.32
2023-10-13T17:06:59.238Z,3.83
2023-10-13T17:09:26.956Z,3.72
2023-10-13T17:11:54.445Z,4.10
2023-10-13T17:14:24.505Z,5.43
2023-10-13T17:16:52.082Z,4.47
2023-10-13T17:19:22.005Z,4.40
2023-10-13T17:21:50.292Z,4.93
2023-10-13T17:24:21.204Z,4.45
2023-10-13T17:26:51.152Z,4.95
2023-10-13T17:29:18.812Z,4.97
2023-10-13T17:31:49.897Z,4.63
2023-10-13T17:34:18.335Z,4.10
2023-10-13T17:36:45.986Z,4.95
2023-10-13T17:39:13.575Z,5.35
2023-10-13T17:41:41.023Z,4.43
2023-10-13T17:44:09.187Z,4.05
2023-10-13T17:46:36.849Z,5.40
2023-10-13T17:49:04.681Z,4.20
2023-10-13T17:51:32.273Z,4.00
2023-10-13T17:54:02.339Z,4.07
2023-10-13T17:56:32.083Z,4.28
2023-10-13T17:59:02.204Z,4.28
2023-10-13T18:01:33.429Z,4.75
2023-10-13T18:04:06.094Z,4.72
2023-10-13T18:06:33.790Z,4.68
2023-10-13T18:09:01.255Z,4.10
2023-10-13T18:11:31.816Z,4.55
2023-10-13T18:14:01.613Z,3.85
2023-10-13T18:16:30.546Z,4.90
2023-10-13T18:18:59.692Z,4.95
2023-10-13T18:21:28.431Z,4.68
2023-10-13T18:23:56.778Z,4.22
2023-10-13T18:26:25.170Z,4.07
2023-10-13T18:29:02.120Z,3.90
2023-10-13T18:31:29.585Z,4.18
2023-10-13T18:33:59.976Z,3.78
2023-10-13T18:36:31.078Z,4.38
2023-10-13T18:39:03.202Z,4.13
2023-10-13T18:41:32.214Z,4.07
2023-10-13T18:44:01.934Z,4.00
2023-10-13T18:46:30.548Z,3.78
2023-10-13T18:49:03.334Z,4.20
2023-10-13T18:51:33.978Z,4.15
2023-10-13T18:54:03.254Z,3.60
2023-10-13T18:56:32.411Z,4.03
2023-10-13T18:59:03.894Z,5.07
2023-10-13T19:01:35.695Z,4.63
2023-10-13T19:04:05.701Z,4.13
2023-10-13T19:06:35.294Z,3.95
2023-10-13T19:09:06.837Z,4.15
2023-10-13T19:11:36.620Z,3.83
2023-10-13T19:14:05.385Z,3.65
2023-10-13T19:16:36.972Z,4.13
2023-10-13T19:19:05.215Z,3.55
2023-10-13T19:21:39.232Z,3.67
2023-10-13T19:24:07.558Z,4.10
2023-10-13T19:26:36.825Z,3.70
2023-10-13T19:29:07.147Z,3.33
2023-10-13T19:31:35.812Z,3.63
2023-10-13T19:34:06.398Z,3.83
2023-10-13T19:36:35.873Z,4.57
2023-10-13T19:39:08.934Z,4.32
2023-10-13T19:41:38.084Z,4.20
2023-10-13T19:44:06.290Z,3.80
2023-10-13T19:46:38.454Z,4.07
2023-10-13T19:49:06.774Z,3.83
2023-10-13T19:51:35.747Z,3.53
2023-10-13T19:54:04.425Z,3.40
2023-10-13T19:56:33.489Z,3.65
2023-10-13T19:59:05.206Z,3.65
2023-10-13T20:01:35.412Z,4.40
2023-10-13T20:04:08.695Z,4.15
2023-10-13T20:06:37.152Z,3.83
2023-10-13T20:09:24.622Z,4.10
2023-10-13T20:11:52.975Z,3.83
2023-10-13T20:14:23.573Z,4.15
2023-10-13T20:16:51.513Z,4.22
2023-10-13T20:19:19.546Z,3.80
2023-10-13T20:21:48.422Z,3.92
2023-10-13T20:24:17.047Z,4.32
2023-10-13T20:26:46.827Z,4.30
2023-10-13T20:29:18.090Z,4.00
2023-10-13T20:31:50.144Z,4.03
2023-10-13T20:34:21.216Z,3.72
2023-10-13T20:36:49.036Z,4.05
2023-10-13T20:39:25.796Z,3.75
2023-10-13T20:41:54.405Z,4.50
2023-10-13T20:44:28.699Z,4.00
2023-10-13T20:46:58.303Z,4.18
2023-10-13T20:49:29.200Z,4.50
2023-10-13T20:52:00.003Z,3.85
2023-10-13T20:56:59.538Z,3.35
2023-10-13T20:59:27.093Z,3.47
2023-10-13T21:01:58.778Z,3.80
2023-10-13T21:04:28.737Z,4.05
2023-10-13T21:06:56.483Z,3.83
2023-10-13T21:09:26.261Z,4.28
2023-10-13T21:11:53.820Z,4.00
2023-10-13T21:14:21.554Z,3.53
2023-10-13T21:16:49.377Z,4.18
2023-10-13T21:19:17.010Z,3.95
2023-10-13T21:21:44.790Z,3.92
2023-10-13T21:24:12.419Z,3.55
2023-10-13T21:26:40.427Z,3.67
2023-10-13T21:29:11.217Z,4.60
2023-10-13T21:31:39.678Z,3.90
2023-10-13T21:34:07.556Z,3.95
2023-10-13T21:36:38.743Z,3.97
2023-10-13T21:39:06.888Z,4.15
2023-10-13T21:41:40.338Z,4.13
2023-10-13T21:44:08.270Z,3.45
2023-10-13T21:46:39.532Z,3.80
2023-10-13T21:49:07.432Z,3.53
2023-10-13T21:51:36.977Z,4.10
2023-10-13T21:54:09.098Z,4.00
2023-10-13T21:56:37.100Z,3.97
2023-10-13T21:59:04.741Z,3.80
2023-10-13T22:01:40.468Z,4.18
2023-10-13T22:04:11.932Z,3.90
2023-10-13T22:06:42.728Z,3.97
2023-10-13T22:09:11.075Z,3.58
2023-10-13T22:11:39.883Z,3.28
2023-10-13T22:14:07.837Z,4.03
2023-10-13T22:16:35.664Z,3.97
2023-10-13T22:19:04.899Z,3.75
2023-10-13T22:21:32.976Z,4.18
2023-10-13T22:24:01.866Z,3.95
2023-10-13T22:26:32.987Z,3.30
2023-10-13T22:29:00.660Z,3.80
2023-10-13T22:31:28.996Z,3.42
2023-10-13T22:33:56.931Z,3.40
2023-10-13T22:36:24.709Z,3.65
2023-10-13T22:38:55.777Z,3.45
2023-10-13T22:41:24.916Z,3.70
2023-10-13T22:43:52.860Z,3.90
2023-10-13T22:46:20.899Z,3.38
2023-10-13T22:48:49.617Z,3.67
2023-10-13T22:51:17.989Z,3.33
2023-10-13T22:53:49.351Z,3.70
2023-10-13T22:56:19.726Z,3.85
2023-10-13T22:58:48.290Z,3.85
2023-10-13T23:01:18.720Z,3.85
2023-10-13T23:03:59.706Z,4.25
2023-10-13T23:06:41.161Z,3.13
2023-10-13T23:09:15.107Z,3.78
2023-10-13T23:11:49.153Z,3.92
2023-10-13T23:14:19.906Z,3.92
2023-10-13T23:16:47.798Z,3.67
2023-10-13T23:19:15.497Z,3.67
2023-10-13T23:21:45.012Z,3.72
2023-10-13T23:24:13.034Z,4.10
2023-10-13T23:26:40.725Z,3.67
2023-10-13T23:29:12.594Z,3.50
2023-10-13T23:31:40.355Z,3.60
2023-10-13T23:34:08.030Z,3.50
2023-10-13T23:36:35.815Z,3.92
2023-10-13T23:39:11.097Z,3.83
2023-10-13T23:41:45.212Z,3.55
2023-10-13T23:46:46.661Z,3.58
2023-10-13T23:49:20.507Z,3.50
2023-10-13T23:56:50.180Z,4.13
2023-10-13T23:59:28.477Z,3.35
